createdAt,value
2018-09-19T00:00:41.080Z,5.70
2018-09-19T00:03:10.496Z,5.93
2018-09-19T00:05:39.893Z,5.60
2018-09-19T00:08:09.291Z,5.53
2018-09-19T00:10:38.732Z,5.87
2018-09-19T00:13:08.188Z,5.80
2018-09-19T00:15:37.752Z,5.97
2018-09-19T00:18:07.344Z,5.40
2018-09-19T00:20:36.761Z,5.77
2018-09-19T00:23:06.108Z,5.70
2018-09-19T00:25:35.658Z,5.93
2018-09-19T00:28:04.994Z,5.67
2018-09-19T00:30:34.450Z,5.93
2018-09-19T00:33:03.854Z,5.93
2018-09-19T00:35:33.249Z,5.73
2018-09-19T00:38:02.630Z,5.70
2018-09-19T00:40:32.107Z,5.20
2018-09-19T00:43:01.482Z,5.63
2018-09-19T00:45:30.870Z,6.07
2018-09-19T00:48:00.288Z,4.57
2018-09-19T00:50:29.636Z,4.57
2018-09-19T00:52:58.968Z,5.00
2018-09-19T00:55:28.313Z,5.93
2018-09-19T00:57:57.739Z,4.70
2018-09-19T01:00:27.186Z,5.50
2018-09-19T01:02:56.526Z,5.50
2018-09-19T01:05:26.108Z,6.23
2018-09-19T01:07:55.793Z,5.90
2018-09-19T01:10:25.098Z,7.57
2018-09-19T01:12:54.475Z,6.60
2018-09-19T01:15:23.921Z,5.70
2018-09-19T01:17:53.293Z,5.87
2018-09-19T01:20:22.988Z,4.87
2018-09-19T01:22:52.324Z,5.97
2018-09-19T01:25:21.706Z,5.57
2018-09-19T01:27:51.083Z,5.03
2018-09-19T01:30:20.482Z,5.67
2018-09-19T01:32:49.840Z,5.23
2018-09-19T01:35:19.459Z,5.93
2018-09-19T01:37:48.880Z,6.33
2018-09-19T01:40:18.264Z,6.45
2018-09-19T01:42:47.693Z,6.53
2018-09-19T01:45:17.094Z,5.03
2018-09-19T01:47:46.488Z,5.43
2018-09-19T01:50:15.834Z,4.67
2018-09-19T01:52:45.316Z,6.60
2018-09-19T01:55:14.687Z,5.30
2018-09-19T01:57:44.071Z,5.30
2018-09-19T02:00:13.544Z,5.70
2018-09-19T02:02:42.934Z,5.80
2018-09-19T02:05:12.316Z,6.37
2018-09-19T02:07:41.734Z,5.70
2018-09-19T02:10:11.090Z,5.37
2018-09-19T02:12:40.515Z,5.43
2018-09-19T02:15:09.948Z,5.97
2018-09-19T02:17:39.440Z,5.40
2018-09-19T02:20:08.795Z,5.87
2018-09-19T02:22:38.234Z,5.60
2018-09-19T02:25:07.588Z,6.20
2018-09-19T02:27:37.006Z,5.10
2018-09-19T02:30:06.393Z,5.30
2018-09-19T02:32:35.847Z,4.83
2018-09-19T02:35:05.232Z,5.23
2018-09-19T02:37:34.601Z,6.07
2018-09-19T02:40:04.110Z,5.33
2018-09-19T02:42:33.797Z,5.40
2018-09-19T02:45:03.231Z,4.97
2018-09-19T02:47:32.583Z,4.90
2018-09-19T02:50:01.930Z,5.93
2018-09-19T02:52:31.263Z,6.13
2018-09-19T02:55:00.657Z,5.80
2018-09-19T02:57:30.013Z,5.47
2018-09-19T02:59:59.523Z,5.43
2018-09-19T03:02:29.004Z,5.90
2018-09-19T03:04:58.381Z,5.57
2018-09-19T03:07:27.756Z,6.40
2018-09-19T03:09:57.127Z,6.57
2018-09-19T03:12:26.569Z,6.17
2018-09-19T03:14:55.948Z,5.97
2018-09-19T03:17:25.483Z,4.60
2018-09-19T03:19:54.790Z,5.80
2018-09-19T03:22:24.196Z,4.73
2018-09-19T03:24:53.539Z,7.13
2018-09-19T03:27:22.867Z,6.43
2018-09-19T03:29:52.319Z,5.90
2018-09-19T03:32:21.715Z,5.40
2018-09-19T03:34:51.070Z,5.23
2018-09-19T03:37:20.509Z,5.47
2018-09-19T03:39:50.526Z,5.60
2018-09-19T03:42:19.894Z,5.60
2018-09-19T03:44:49.266Z,5.23
2018-09-19T03:47:18.656Z,4.20
2018-09-19T03:49:48.071Z,4.53
2018-09-19T03:52:17.819Z,5.13
2018-09-19T03:54:47.186Z,4.90
2018-09-19T03:57:16.568Z,5.33
2018-09-19T03:59:46.011Z,5.83
2018-09-19T04:02:15.412Z,5.10
2018-09-19T04:04:44.847Z,6.03
2018-09-19T04:07:14.211Z,6.57
2018-09-19T04:09:43.600Z,5.93
2018-09-19T04:12:12.975Z,5.80
2018-09-19T04:14:42.365Z,5.40
2018-09-19T04:17:11.801Z,4.93
2018-09-19T04:19:41.173Z,4.87
2018-09-19T04:22:10.658Z,5.23
2018-09-19T04:24:40.143Z,5.37
2018-09-19T04:27:09.494Z,5.47
2018-09-19T04:29:38.946Z,5.10
2018-09-19T04:32:08.345Z,4.83
2018-09-19T04:34:38.543Z,5.60
2018-09-19T04:37:09.098Z,5.33
2018-09-19T04:39:39.467Z,5.20
2018-09-19T04:42:08.820Z,5.40
2018-09-19T04:44:38.756Z,5.50
2018-09-19T04:47:08.983Z,5.07
2018-09-19T04:49:38.330Z,5.13
2018-09-19T04:52:08.069Z,5.70
2018-09-19T04:54:37.458Z,6.20
2018-09-19T04:57:06.880Z,5.30
2018-09-19T04:59:36.286Z,5.83
2018-09-19T05:02:05.697Z,5.57
2018-09-19T05:04:35.124Z,6.20
2018-09-19T05:07:04.481Z,4.83
2018-09-19T05:09:33.874Z,5.50
2018-09-19T05:12:03.258Z,6.30
2018-09-19T05:14:32.725Z,5.23
2018-09-19T05:17:02.323Z,4.70
2018-09-19T05:19:31.632Z,4.47
2018-09-19T05:22:01.001Z,4.73
2018-09-19T05:24:30.373Z,4.83
2018-09-19T05:26:59.763Z,6.10
2018-09-19T05:29:29.129Z,4.97
2018-09-19T05:31:58.535Z,4.60
2018-09-19T05:34:27.937Z,4.93
2018-09-19T05:36:57.310Z,4.90
2018-09-19T05:39:26.697Z,4.60
2018-09-19T05:41:56.068Z,5.63
2018-09-19T05:44:25.438Z,5.50
2018-09-19T05:46:54.802Z,5.73
2018-09-19T05:49:24.148Z,4.30
2018-09-19T05:51:53.535Z,5.27
2018-09-19T05:54:22.907Z,5.20
2018-09-19T05:56:52.336Z,5.70
2018-09-19T05:59:21.708Z,5.50
2018-09-19T06:01:51.063Z,5.80
2018-09-19T06:04:20.493Z,4.50
2018-09-19T06:06:49.854Z,6.40
2018-09-19T06:09:19.239Z,5.30
2018-09-19T06:11:48.624Z,6.90
2018-09-19T06:14:18.070Z,6.70
2018-09-19T06:16:47.501Z,5.60
2018-09-19T06:19:17.529Z,6.43
2018-09-19T06:21:47.116Z,6.10
2018-09-19T06:24:16.496Z,5.33
2018-09-19T06:26:45.907Z,6.60
2018-09-19T06:29:15.235Z,5.77
2018-09-19T06:31:44.669Z,5.03
2018-09-19T06:34:14.019Z,6.47
2018-09-19T06:36:43.559Z,7.23
2018-09-19T06:39:12.954Z,5.97
2018-09-19T06:41:42.363Z,8.15
2018-09-19T06:44:11.749Z,5.87
2018-09-19T06:46:41.152Z,5.03
2018-09-19T06:49:10.542Z,4.50
2018-09-19T06:51:39.952Z,5.17
2018-09-19T06:54:09.341Z,4.50
2018-09-19T06:56:38.697Z,4.40
2018-09-19T06:59:08.064Z,6.10
2018-09-19T07:01:37.475Z,5.37
2018-09-19T07:04:06.998Z,5.10
2018-09-19T07:06:36.505Z,4.03
2018-09-19T07:09:08.702Z,5.67
2018-09-19T07:11:38.077Z,5.20
2018-09-19T07:14:07.845Z,4.97
2018-09-19T07:16:37.223Z,4.70
2018-09-19T07:19:06.689Z,4.20
2018-09-19T07:21:36.088Z,7.87
2018-09-19T07:24:05.442Z,4.43
2018-09-19T07:26:34.844Z,4.30
2018-09-19T07:29:04.911Z,4.40
2018-09-19T07:31:34.361Z,5.23
2018-09-19T07:34:03.711Z,4.53
2018-09-19T07:36:33.212Z,4.07
2018-09-19T07:39:02.631Z,4.90
2018-09-19T07:41:31.996Z,3.53
2018-09-19T07:44:01.444Z,3.77
2018-09-19T07:46:30.981Z,4.30
2018-09-19T07:49:00.358Z,4.77
2018-09-19T07:51:29.709Z,4.00
2018-09-19T07:53:59.053Z,4.90
2018-09-19T07:56:28.433Z,4.07
2018-09-19T07:58:57.766Z,4.33
2018-09-19T08:01:27.131Z,3.93
2018-09-19T08:03:56.576Z,4.37
2018-09-19T08:06:25.988Z,4.73
2018-09-19T08:08:55.429Z,4.53
2018-09-19T08:11:24.807Z,4.57
2018-09-19T08:13:54.184Z,4.60
2018-09-19T08:16:23.528Z,4.67
2018-09-19T08:18:52.883Z,4.10
2018-09-19T08:21:22.349Z,3.87
2018-09-19T08:23:51.780Z,4.97
2018-09-19T08:26:21.138Z,2.93
2018-09-19T08:28:50.646Z,4.60
2018-09-19T08:31:20.021Z,4.30
2018-09-19T08:33:49.366Z,4.33
2018-09-19T08:36:18.700Z,4.90
2018-09-19T08:38:48.065Z,3.93
2018-09-19T08:41:17.458Z,3.67
2018-09-19T08:43:47.164Z,3.50
2018-09-19T08:46:16.654Z,3.90
2018-09-19T08:48:46.093Z,3.77
2018-09-19T08:51:15.456Z,3.27
2018-09-19T08:53:44.868Z,4.50
2018-09-19T08:56:14.276Z,3.67
2018-09-19T08:58:43.582Z,4.03
2018-09-19T09:01:13.010Z,4.78
2018-09-19T09:03:42.413Z,4.63
2018-09-19T09:06:11.806Z,3.70
2018-09-19T09:08:41.198Z,4.90
2018-09-19T09:11:10.635Z,4.80
2018-09-19T09:13:40.040Z,4.37
2018-09-19T09:16:09.442Z,4.23
2018-09-19T09:18:38.906Z,4.27
2018-09-19T09:21:08.394Z,4.57
2018-09-19T09:23:37.795Z,4.87
2018-09-19T09:26:07.293Z,4.40
2018-09-19T09:28:36.609Z,5.57
2018-09-19T09:31:06.281Z,4.60
2018-09-19T09:33:35.576Z,4.10
2018-09-19T09:36:05.099Z,5.23
2018-09-19T09:38:34.674Z,5.03
2018-09-19T09:41:04.156Z,4.40
2018-09-19T09:43:33.566Z,4.00
2018-09-19T09:46:03.030Z,3.60
2018-09-19T09:48:32.338Z,3.53
2018-09-19T09:51:01.707Z,3.03
2018-09-19T09:56:00.445Z,2.30
2018-09-19T09:58:29.799Z,2.50
2018-09-19T10:00:59.240Z,2.27
2018-09-19T10:03:28.575Z,1.90
2018-09-19T10:05:57.934Z,2.30
2018-09-19T10:08:27.361Z,2.67
2018-09-19T10:10:56.700Z,3.13
2018-09-19T10:13:26.183Z,2.73
2018-09-19T10:15:55.609Z,2.77
2018-09-19T10:18:24.992Z,2.47
2018-09-19T10:20:54.361Z,2.60
2018-09-19T10:23:23.818Z,2.33
2018-09-19T10:25:53.220Z,3.37
2018-09-19T10:28:22.618Z,2.33
2018-09-19T10:30:52.008Z,2.17
2018-09-19T10:33:21.390Z,2.23
2018-09-19T10:35:50.801Z,2.37
2018-09-19T10:38:20.213Z,2.93
2018-09-19T10:40:49.582Z,2.30
2018-09-19T10:43:19.035Z,3.00
2018-09-19T10:45:48.394Z,3.00
2018-09-19T10:48:17.756Z,3.10
2018-09-19T10:50:47.165Z,2.83
2018-09-19T10:53:16.606Z,2.47
2018-09-19T10:55:46.029Z,2.80
2018-09-19T10:58:15.368Z,2.60
2018-09-19T11:00:44.763Z,2.10
2018-09-19T11:03:14.174Z,2.87
2018-09-19T11:05:43.720Z,2.60
2018-09-19T11:08:13.147Z,2.13
2018-09-19T11:10:43.511Z,2.30
2018-09-19T11:13:12.981Z,2.50
2018-09-19T11:15:42.357Z,2.70
2018-09-19T11:18:11.753Z,2.60
2018-09-19T11:20:41.306Z,2.27
2018-09-19T11:23:10.686Z,2.10
2018-09-19T11:25:40.043Z,1.80
2018-09-19T11:28:09.435Z,2.17
2018-09-19T11:30:38.829Z,2.40
2018-09-19T11:33:08.258Z,2.17
2018-09-19T11:35:37.711Z,2.60
2018-09-19T11:38:07.068Z,2.47
2018-09-19T11:40:36.546Z,2.27
2018-09-19T11:43:06.079Z,2.40
2018-09-19T11:45:35.606Z,2.47
2018-09-19T11:48:05.160Z,2.67
2018-09-19T11:50:34.568Z,2.03
2018-09-19T11:53:04.039Z,2.23
2018-09-19T11:55:33.472Z,2.75
2018-09-19T11:58:02.953Z,2.27
2018-09-19T12:00:32.470Z,2.43
2018-09-19T12:03:01.932Z,2.47
2018-09-19T12:05:31.361Z,2.53
2018-09-19T12:08:00.773Z,2.47
2018-09-19T12:10:30.281Z,1.90
2018-09-19T12:12:59.755Z,2.00
2018-09-19T12:15:29.180Z,2.47
2018-09-19T12:17:58.600Z,2.23
2018-09-19T12:20:28.091Z,1.80
2018-09-19T12:22:57.608Z,2.47
2018-09-19T12:25:27.856Z,1.97
2018-09-19T12:27:57.390Z,2.77
2018-09-19T12:30:26.827Z,2.43
2018-09-19T12:32:56.390Z,2.53
2018-09-19T12:35:25.845Z,1.90
2018-09-19T12:37:55.306Z,2.50
2018-09-19T12:40:24.852Z,2.30
2018-09-19T12:42:54.205Z,2.77
2018-09-19T12:45:23.615Z,2.30
2018-09-19T12:47:53.043Z,3.00
2018-09-19T12:50:22.423Z,2.37
2018-09-19T12:52:51.845Z,2.33
2018-09-19T12:55:21.295Z,2.60
2018-09-19T12:57:50.650Z,2.47
2018-09-19T13:00:20.409Z,2.63
2018-09-19T13:02:50.369Z,2.85
2018-09-19T13:05:19.827Z,2.63
2018-09-19T13:07:49.264Z,1.80
2018-09-19T13:10:18.710Z,1.83
2018-09-19T13:12:48.135Z,2.10
2018-09-19T13:15:17.537Z,2.53
2018-09-19T13:17:47.140Z,2.27
2018-09-19T13:20:16.546Z,2.20
2018-09-19T13:22:46.651Z,2.63
2018-09-19T13:25:16.034Z,2.70
2018-09-19T13:27:45.426Z,2.20
2018-09-19T13:30:14.878Z,2.13
2018-09-19T13:32:44.304Z,2.43
2018-09-19T13:35:13.937Z,2.47
2018-09-19T13:37:43.336Z,2.67
2018-09-19T13:40:12.849Z,2.23
2018-09-19T13:42:42.258Z,1.90
2018-09-19T13:45:11.657Z,2.80
2018-09-19T13:47:41.109Z,2.30
2018-09-19T13:51:21.694Z,2.37
2018-09-19T13:53:51.261Z,2.30
2018-09-19T13:56:21.166Z,2.87
2018-09-19T13:58:50.675Z,2.43
2018-09-19T14:01:20.042Z,2.50
2018-09-19T14:03:49.513Z,2.50
2018-09-19T14:06:18.923Z,2.50
2018-09-19T14:08:48.478Z,2.67
2018-09-19T14:11:17.902Z,2.37
2018-09-19T14:13:48.088Z,2.80
2018-09-19T14:16:17.541Z,2.60
2018-09-19T14:18:47.343Z,2.20
2018-09-19T14:21:16.766Z,2.07
2018-09-19T14:23:46.313Z,2.13
2018-09-19T14:26:15.729Z,1.90
2018-09-19T14:28:45.135Z,2.30
2018-09-19T14:31:14.833Z,2.00
2018-09-19T14:33:44.312Z,1.83
2018-09-19T14:36:13.691Z,2.13
2018-09-19T14:38:43.232Z,1.97
2018-09-19T14:41:12.661Z,2.50
2018-09-19T14:43:42.005Z,2.30
2018-09-19T14:46:11.484Z,2.80
2018-09-19T14:48:41.120Z,2.70
2018-09-19T14:51:10.537Z,2.50
2018-09-19T14:53:39.913Z,2.37
2018-09-19T14:56:09.395Z,1.60
2018-09-19T14:58:38.752Z,2.80
2018-09-19T15:01:08.195Z,2.70
2018-09-19T15:03:37.671Z,2.50
2018-09-19T15:06:07.275Z,2.63
2018-09-19T15:08:36.707Z,2.33
2018-09-19T15:11:06.953Z,2.40
2018-09-19T15:13:36.378Z,1.83
2018-09-19T15:16:06.386Z,2.20
2018-09-19T15:18:37.131Z,2.00
2018-09-19T15:21:06.900Z,2.13
2018-09-19T15:23:36.401Z,2.50
2018-09-19T15:26:05.792Z,2.50
2018-09-19T15:28:35.366Z,2.80
2018-09-19T15:31:05.965Z,2.57
2018-09-19T15:33:35.367Z,2.67
2018-09-19T15:36:04.863Z,2.40
2018-09-19T15:38:34.330Z,2.37
2018-09-19T15:41:03.772Z,2.92
2018-09-19T15:43:33.821Z,2.90
2018-09-19T15:46:03.935Z,2.60
2018-09-19T15:48:33.376Z,2.30
2018-09-19T15:51:02.762Z,2.80
2018-09-19T15:53:32.937Z,2.30
2018-09-19T15:56:03.119Z,2.50
2018-09-19T15:58:32.563Z,2.60
2018-09-19T16:01:01.951Z,2.70
2018-09-19T16:03:31.849Z,2.40
2018-09-19T16:06:01.266Z,2.40
2018-09-19T16:08:30.818Z,2.33
2018-09-19T16:11:00.289Z,2.63
2018-09-19T16:13:29.882Z,2.30
2018-09-19T16:16:00.208Z,2.67
2018-09-19T16:18:29.612Z,2.80
2018-09-19T16:20:59.116Z,2.20
2018-09-19T16:23:28.691Z,2.53
2018-09-19T16:25:58.103Z,2.57
2018-09-19T16:28:27.770Z,2.60
2018-09-19T16:30:57.365Z,2.60
2018-09-19T16:33:26.787Z,2.40
2018-09-19T16:35:56.216Z,2.00
2018-09-19T16:38:26.273Z,2.43
2018-09-19T16:40:55.680Z,2.10
2018-09-19T16:43:25.767Z,2.33
2018-09-19T16:45:55.250Z,1.83
2018-09-19T16:48:24.720Z,2.47
2018-09-19T16:50:54.167Z,2.27
2018-09-19T16:53:23.812Z,2.93
2018-09-19T16:55:53.241Z,2.87
2018-09-19T16:58:22.783Z,2.80
2018-09-19T17:00:52.276Z,2.57
2018-09-19T17:03:21.717Z,2.40
2018-09-19T17:05:51.198Z,2.70
2018-09-19T17:08:20.611Z,2.50
2018-09-19T17:10:50.071Z,2.20
2018-09-19T17:13:19.483Z,2.67
2018-09-19T17:15:49.195Z,2.43
2018-09-19T17:18:18.688Z,2.57
2018-09-19T17:20:48.106Z,2.80
2018-09-19T17:23:17.534Z,2.10
2018-09-19T17:25:47.183Z,2.27
2018-09-19T17:28:16.611Z,2.10
2018-09-19T17:30:46.093Z,2.57
2018-09-19T17:33:15.689Z,2.33
2018-09-19T17:35:45.227Z,1.97
2018-09-19T17:38:14.667Z,2.50
2018-09-19T17:40:44.432Z,2.40
2018-09-19T17:43:14.166Z,2.37
2018-09-19T17:45:43.687Z,2.00
2018-09-19T17:48:13.093Z,2.00
2018-09-19T17:50:42.560Z,2.80
2018-09-19T17:53:12.116Z,2.20
2018-09-19T17:55:41.697Z,2.10
2018-09-19T17:58:11.224Z,2.37
2018-09-19T18:00:40.656Z,1.87
2018-09-19T18:03:10.317Z,2.00
2018-09-19T18:05:39.852Z,2.00
2018-09-19T18:08:09.324Z,2.33
2018-09-19T18:10:38.755Z,2.10
2018-09-19T18:13:09.691Z,3.03
2018-09-19T18:15:39.276Z,3.33
2018-09-19T18:18:08.755Z,2.87
2018-09-19T18:20:38.179Z,2.20
2018-09-19T18:23:08.036Z,2.40
2018-09-19T18:25:37.615Z,2.13
2018-09-19T18:28:07.147Z,3.00
2018-09-19T18:30:36.981Z,2.80
2018-09-19T18:33:06.438Z,3.10
2018-09-19T18:35:35.922Z,2.53
2018-09-19T18:38:05.371Z,2.60
2018-09-19T18:40:34.924Z,2.43
2018-09-19T18:43:04.466Z,2.70
2018-09-19T18:45:34.008Z,2.83
2018-09-19T18:48:03.980Z,3.00
2018-09-19T18:50:33.734Z,2.77
2018-09-19T18:53:03.249Z,3.00
2018-09-19T18:55:32.832Z,2.97
2018-09-19T18:58:02.408Z,3.43
2018-09-19T19:00:31.867Z,3.00
2018-09-19T19:03:01.403Z,2.43
2018-09-19T19:05:31.012Z,2.50
2018-09-19T19:08:00.591Z,2.40
2018-09-19T19:10:30.020Z,2.53
2018-09-19T19:12:59.510Z,3.17
2018-09-19T19:15:28.991Z,3.27
2018-09-19T19:17:58.466Z,3.53
2018-09-19T19:20:28.018Z,3.47
2018-09-19T19:22:57.749Z,3.60
2018-09-19T19:25:27.424Z,3.23
2018-09-19T19:27:57.049Z,3.63
2018-09-19T19:30:26.659Z,3.40
2018-09-19T19:32:56.010Z,3.40
2018-09-19T19:35:25.594Z,3.43
2018-09-19T19:37:56.094Z,3.30
2018-09-19T19:40:25.568Z,3.80
2018-09-19T19:42:55.090Z,3.07
2018-09-19T19:45:24.582Z,3.30
2018-09-19T19:47:54.063Z,3.97
2018-09-19T19:50:23.535Z,3.70
2018-09-19T19:52:53.050Z,3.80
2018-09-19T19:55:22.852Z,3.40
2018-09-19T19:57:52.508Z,2.73
2018-09-19T20:00:21.998Z,3.80
2018-09-19T20:02:51.497Z,3.53
2018-09-19T20:05:21.165Z,3.80
2018-09-19T20:07:50.666Z,3.53
2018-09-19T20:10:20.224Z,4.27
2018-09-19T20:12:49.694Z,3.93
2018-09-19T20:15:19.157Z,3.33
2018-09-19T20:17:48.651Z,3.60
2018-09-19T20:20:18.093Z,3.90
2018-09-19T20:22:47.526Z,3.60
2018-09-19T20:25:17.571Z,3.47
2018-09-19T20:27:47.003Z,3.17
2018-09-19T20:30:16.475Z,4.47
2018-09-19T20:32:45.873Z,4.30
2018-09-19T20:35:15.931Z,3.27
2018-09-19T20:37:45.349Z,3.60
2018-09-19T20:40:15.412Z,4.20
2018-09-19T20:42:44.799Z,4.23
2018-09-19T20:45:14.925Z,3.83
2018-09-19T20:47:44.339Z,4.00
2018-09-19T20:50:14.543Z,3.80
2018-09-19T20:52:43.949Z,4.37
2018-09-19T20:55:13.344Z,4.07
2018-09-19T20:57:43.277Z,3.90
2018-09-19T21:00:12.966Z,4.40
2018-09-19T21:02:42.393Z,4.20
2018-09-19T21:05:11.972Z,3.73
2018-09-19T21:07:41.419Z,3.77
2018-09-19T21:10:10.855Z,3.47
2018-09-19T21:12:40.277Z,4.03
2018-09-19T21:15:10.226Z,3.80
2018-09-19T21:17:39.674Z,5.07
2018-09-19T21:20:09.112Z,4.30
2018-09-19T21:22:38.978Z,4.10
2018-09-19T21:25:08.402Z,4.33
2018-09-19T21:27:37.812Z,4.17
2018-09-19T21:30:07.536Z,4.07
2018-09-19T21:32:36.941Z,3.70
2018-09-19T21:35:06.301Z,3.83
2018-09-19T21:37:35.684Z,3.53
2018-09-19T21:40:05.407Z,4.10
2018-09-19T21:42:35.108Z,4.00
2018-09-19T21:45:04.516Z,5.30
2018-09-19T21:47:35.165Z,4.20
2018-09-19T21:50:04.568Z,3.70
2018-09-19T21:52:33.985Z,4.63
2018-09-19T21:55:03.638Z,3.47
2018-09-19T21:57:33.005Z,4.00
2018-09-19T22:00:02.421Z,3.93
2018-09-19T22:02:32.845Z,3.77
2018-09-19T22:05:02.229Z,4.10
2018-09-19T22:07:31.618Z,4.50
2018-09-19T22:10:00.998Z,3.90
2018-09-19T22:12:30.804Z,4.50
2018-09-19T22:15:00.173Z,4.60
2018-09-19T22:17:29.517Z,4.00
2018-09-19T22:20:00.067Z,4.33
2018-09-19T22:22:29.420Z,4.50
2018-09-19T22:24:58.805Z,4.63
2018-09-19T22:27:28.213Z,4.30
2018-09-19T22:29:57.592Z,4.17
2018-09-19T22:32:26.988Z,4.23
2018-09-19T22:34:57.568Z,4.13
2018-09-19T22:37:26.956Z,4.57
2018-09-19T22:39:56.339Z,4.83
2018-09-19T22:42:25.717Z,4.23
2018-09-19T22:44:56.368Z,4.30
2018-09-19T22:47:25.718Z,4.67
2018-09-19T22:49:55.085Z,4.97
2018-09-19T22:52:24.528Z,4.90
2018-09-19T22:54:54.992Z,5.10
2018-09-19T22:57:24.410Z,4.10
2018-09-19T22:59:53.768Z,5.07
2018-09-19T23:02:23.163Z,4.17
2018-09-19T23:04:52.610Z,4.27
2018-09-19T23:07:23.188Z,4.80
2018-09-19T23:09:52.555Z,4.70
2018-09-19T23:12:22.533Z,4.93
2018-09-19T23:14:51.878Z,4.67
2018-09-19T23:17:21.773Z,4.80
2018-09-19T23:19:51.200Z,4.27
2018-09-19T23:22:20.580Z,4.97
2018-09-19T23:24:49.945Z,4.40
2018-09-19T23:27:19.416Z,5.00
2018-09-19T23:29:49.515Z,4.73
2018-09-19T23:32:18.998Z,4.77
2018-09-19T23:34:48.361Z,4.47
2018-09-19T23:37:18.764Z,4.57
2018-09-19T23:39:48.130Z,4.50
2018-09-19T23:42:17.590Z,4.63
2018-09-19T23:44:48.322Z,4.37
2018-09-19T23:47:17.735Z,4.63
2018-09-19T23:49:47.066Z,3.77
2018-09-19T23:52:16.477Z,4.77
2018-09-19T23:54:46.377Z,5.37
2018-09-19T23:57:15.949Z,4.80
2018-09-19T23:59:45.381Z,4.13
